WetterOnline ( https://www.wetteronline.ch )

Wetter aktuell Kap Arkona

Aktuelles Wetter: Kap Arkona/Rügen (42m)

6-stündlich | Neueste Meldungen
Ortszeit Temperatur Wetter
Di, 02.06. 14:00 19.2° C wolkenlos
Di, 02.06. 8:00 14.8° C wolkenlos
Di, 02.06. 2:00 14.6° C wolkenlos
Mo, 01.06. 20:00 16.8° C wolkenlos
Mo, 01.06. 14:00 15.3° C wolkenlos
Mo, 01.06. 8:00 14.3° C wolkenlos
Mo, 01.06. 2:00 12.0° C wolkenlos
So, 31.05. 20:00 13.6° C wolkenlos
Ortszeit Temperatur Wetter
Di, 02.06. 16:10 19.7° C leicht bewölkt
Di, 02.06. 16:00 20.0° C leicht bewölkt
Di, 02.06. 15:50 20.0° C leicht bewölkt
Di, 02.06. 15:40 19.5° C wolkenlos
Di, 02.06. 15:30 19.4° C fast wolkenlos
Di, 02.06. 15:20 19.4° C fast wolkenlos
Di, 02.06. 15:00 19.6° C wolkenlos
Di, 02.06. 14:30 19.2° C wolkenlos
Di, 02.06. 14:00 19.2° C wolkenlos
Di, 02.06. 13:30 18.8° C wolkenlos
Di, 02.06. 13:00 18.2° C wolkenlos
Ortszeit Relative Feuchte Sichtweite
Di, 02.06. 14:00 59% >70 km
Di, 02.06. 8:00 78% 65 km
Di, 02.06. 2:00 72% 65 km
Mo, 01.06. 20:00 47% >70 km
Mo, 01.06. 14:00 68% 55 km
Mo, 01.06. 8:00 71% 65 km
Mo, 01.06. 2:00 81% 40 km
So, 31.05. 20:00 67% 55 km
Ortszeit Relative Feuchte Sichtweite
Di, 02.06. 16:10 56% -
Di, 02.06. 16:00 54% 55 km
Di, 02.06. 15:50 54% -
Di, 02.06. 15:40 56% -
Di, 02.06. 15:30 59% 55 km
Di, 02.06. 15:20 59% -
Di, 02.06. 15:00 56% >70 km
Di, 02.06. 14:30 59% 50 km
Di, 02.06. 14:00 59% >70 km
Di, 02.06. 13:30 61% 65 km
Di, 02.06. 13:00 62% 55 km
Ortszeit Niederschlagsmenge Niederschlagsart
Di, 02.06. 14:00 0.0 l/m2 in 6 Std. -
Di, 02.06. 8:00 0.0 l/m2 in 12 Std. -
Di, 02.06. 2:00 0.0 l/m2 in 6 Std. -
Mo, 01.06. 20:00 0.0 l/m2 in 12 Std. -
Mo, 01.06. 14:00 0.0 l/m2 in 6 Std. -
Mo, 01.06. 8:00 0.0 l/m2 in 12 Std. -
Mo, 01.06. 2:00 0.0 l/m2 in 6 Std. -
So, 31.05. 20:00 0.0 l/m2 in 12 Std. -
Ortszeit Niederschlagsmenge Niederschlagsart
Di, 02.06. 16:10 keine Meldung -
Di, 02.06. 16:00 0.0 l/m2 in 1 Std. -
Di, 02.06. 15:50 keine Meldung -
Di, 02.06. 15:40 keine Meldung -
Di, 02.06. 15:30 0.0 l/m2 in 1 Std. -
Di, 02.06. 15:20 keine Meldung -
Di, 02.06. 15:00 0.0 l/m2 in 1 Std. -
Di, 02.06. 14:30 0.0 l/m2 in 1 Std. -
Di, 02.06. 14:00 0.0 l/m2 in 1 Std. -
Di, 02.06. 13:30 0.0 l/m2 in 1 Std. -
Di, 02.06. 13:00 0.0 l/m2 in 1 Std. -
Ortszeit Stärke Spitze Richtung
km/h Bft. km/h Grad Sektor
Di, 02.06. 14:00 19 3 39 300° NW
Di, 02.06. 8:00 18 3 29 290° W
Di, 02.06. 2:00 14 3 22 320° NW
Mo, 01.06. 20:00 11 2 14 290° W
Mo, 01.06. 14:00 9 2 31 70° O
Mo, 01.06. 8:00 24 4 44 40° NO
Mo, 01.06. 2:00 30 5 61 50° NO
So, 31.05. 20:00 36 5 58 80° O
Ortszeit Stärke Spitze Richtung
km/h Bft. km/h Grad Sektor
Di, 02.06. 16:10 19 3 - 300° NW
Di, 02.06. 16:00 22 4 36 300° NW
Di, 02.06. 15:50 22 4 - 300° NW
Di, 02.06. 15:40 20 4 - 300° NW
Di, 02.06. 15:30 17 3 28 300° NW
Di, 02.06. 15:20 17 3 - 300° NW
Di, 02.06. 15:00 18 3 36 300° NW
Di, 02.06. 14:30 18 3 32 300° NW
Di, 02.06. 14:00 19 3 33 300° NW
Di, 02.06. 13:30 22 4 36 300° NW
Di, 02.06. 13:00 22 4 40 300° NW
Ortszeit Untergrenze Bedeckung Gattung
total tief tief mittel hoch
Di, 02.06. 14:00 - 0/8 0/8 - - -
Di, 02.06. 8:00 - 0/8 0/8 - - -
Di, 02.06. 2:00 - 0/8 0/8 - - -
Mo, 01.06. 20:00 - 0/8 0/8 - - -
Mo, 01.06. 14:00 - 0/8 0/8 - - -
Mo, 01.06. 8:00 - 0/8 0/8 - - -
Mo, 01.06. 2:00 - 0/8 0/8 - - -
So, 31.05. 20:00 - 0/8 0/8 - - -
Ortszeit Bedeckungsgrad in Achtel und Wolkenuntergrenze
Di, 02.06. 16:10 3(6600m) 4(7500m)
Di, 02.06. 16:00 3(6600m) 5(7500m)
Di, 02.06. 15:50 3(6600m)
Di, 02.06. 15:40 keine Wolken
Di, 02.06. 15:30 2(10500m)
Di, 02.06. 15:20 2(10500m)
Di, 02.06. 15:00 1(10500m)
Di, 02.06. 14:30 keine Wolken
Di, 02.06. 14:00 keine Wolken
Di, 02.06. 13:30 keine Wolken
Di, 02.06. 13:00 keine Wolken
Ortszeit Luftdruck NN (hPa) Tendenz (hPa in 3 Std.)
Di, 02.06. 14:00 1017 - 1,7
Di, 02.06. 8:00 1020 - 1,0
Di, 02.06. 2:00 1023 - 1,2
Mo, 01.06. 20:00 1025 - 1,5
Mo, 01.06. 14:00 1027 - 0,6
Mo, 01.06. 8:00 1027 + 0,4
Mo, 01.06. 2:00 1027 + 0,3
So, 31.05. 20:00 1026 - 0,1
Ortszeit Luftdruck NN (hPa) Tendenz (hPa in 3 Std.)
Di, 02.06. 16:10 1015 keine Meldung
Di, 02.06. 16:00 1015 - 2,4
Di, 02.06. 15:50 1015 keine Meldung
Di, 02.06. 15:40 1016 keine Meldung
Di, 02.06. 15:30 1016 - 1,9
Di, 02.06. 15:20 1016 keine Meldung
Di, 02.06. 15:00 1016 - 1,7
Di, 02.06. 14:30 1017 - 1,7
Di, 02.06. 14:00 1017 - 1,7
Di, 02.06. 13:30 1017 - 1,6
Di, 02.06. 13:00 1018 - 1,4
Ortszeit Schneehöhe (cm)
Di, 02.06. 14:00 -
Di, 02.06. 8:00 -
Di, 02.06. 2:00 -
Mo, 01.06. 20:00 -
Mo, 01.06. 14:00 -
Mo, 01.06. 8:00 -
Mo, 01.06. 2:00 -
So, 31.05. 20:00 -
Ortszeit Schneehöhe (cm)
Di, 02.06. 16:10 -
Di, 02.06. 16:00 -
Di, 02.06. 15:50 -
Di, 02.06. 15:40 -
Di, 02.06. 15:30 -
Di, 02.06. 15:20 -
Di, 02.06. 15:00 -
Di, 02.06. 14:30 -
Di, 02.06. 14:00 -
Di, 02.06. 13:30 -
Di, 02.06. 13:00 -
Link zu dieser Seite / Seite empfehlen

Das Wetter in ...